createdAt,value
2023-01-22T00:04:57.587Z,88.50
2023-01-22T00:10:03.313Z,88.60
2023-01-22T00:15:11.180Z,88.47
2023-01-22T00:20:17.948Z,88.46
2023-01-22T00:25:24.066Z,88.51
2023-01-22T00:30:29.635Z,88.58
2023-01-22T00:35:36.104Z,88.46
2023-01-22T00:40:41.628Z,88.44
2023-01-22T00:45:47.208Z,88.46
2023-01-22T00:50:52.832Z,88.44
2023-01-22T00:56:00.520Z,88.43
2023-01-22T01:01:07.223Z,88.43
2023-01-22T01:06:17.791Z,88.40
2023-01-22T01:11:25.835Z,88.31
2023-01-22T01:16:33.034Z,88.31
2023-01-22T01:21:39.174Z,88.32
2023-01-22T01:26:45.019Z,88.23
2023-01-22T01:31:52.825Z,88.26
2023-01-22T01:36:58.267Z,88.21
2023-01-22T01:42:03.858Z,88.28
2023-01-22T01:47:30.208Z,88.19
2023-01-22T01:52:36.326Z,88.19
2023-01-22T01:57:43.165Z,88.17
2023-01-22T02:02:49.996Z,88.01
2023-01-22T02:07:55.655Z,88.09
2023-01-22T02:13:09.453Z,88.08
2023-01-22T02:18:15.166Z,88.02
2023-01-22T02:23:20.799Z,87.92
2023-01-22T02:28:26.400Z,87.99
2023-01-22T02:33:31.835Z,88.06
2023-01-22T02:38:37.318Z,88.07
2023-01-22T02:43:42.843Z,88.07
2023-01-22T02:48:48.566Z,87.96
2023-01-22T02:53:54.757Z,87.97
2023-01-22T02:59:02.003Z,88.00
2023-01-22T03:04:10.809Z,88.00
2023-01-22T03:09:18.540Z,87.96
2023-01-22T03:14:42.182Z,87.99
2023-01-22T03:20:05.734Z,87.90
2023-01-22T03:25:11.660Z,87.96
2023-01-22T03:30:18.311Z,87.88
2023-01-22T03:35:24.795Z,87.90
2023-01-22T03:40:30.349Z,87.89
2023-01-22T03:45:36.356Z,87.96
2023-01-22T03:50:41.881Z,87.93
2023-01-22T03:55:47.342Z,87.93
2023-01-22T04:00:57.082Z,87.80
2023-01-22T04:06:03.018Z,87.82
2023-01-22T04:11:09.892Z,87.79
2023-01-22T04:16:16.766Z,87.80
2023-01-22T04:21:22.477Z,87.69
2023-01-22T04:26:28.100Z,87.58
2023-01-22T04:31:33.755Z,87.49
2023-01-22T04:36:39.332Z,87.32
2023-01-22T04:41:44.841Z,87.37
2023-01-22T04:46:50.333Z,87.32
2023-01-22T04:51:55.920Z,87.18
2023-01-22T04:57:01.543Z,87.33
2023-01-22T05:02:07.259Z,87.40
2023-01-22T05:07:12.718Z,87.46
2023-01-22T05:12:18.302Z,87.41
2023-01-22T05:17:23.880Z,87.33
2023-01-22T05:22:29.426Z,87.29
2023-01-22T05:27:35.019Z,87.32
2023-01-22T05:32:40.522Z,87.28
2023-01-22T05:37:46.026Z,87.36
2023-01-22T05:42:51.501Z,87.30
2023-01-22T05:47:57.862Z,87.21
2023-01-22T05:53:03.612Z,87.29
2023-01-22T05:58:09.308Z,87.28
2023-01-22T06:03:14.841Z,87.28
2023-01-22T06:08:20.438Z,87.29
2023-01-22T06:13:25.985Z,87.32
2023-01-22T06:18:31.927Z,87.28
2023-01-22T06:23:37.936Z,87.26
2023-01-22T06:28:43.434Z,87.23
2023-01-22T06:33:49.047Z,87.29
2023-01-22T06:38:54.606Z,87.19
2023-01-22T06:44:00.173Z,87.19
2023-01-22T06:49:05.757Z,87.20
2023-01-22T06:54:13.753Z,87.22
2023-01-22T06:59:19.354Z,87.28
2023-01-22T07:04:24.849Z,87.30
2023-01-22T07:09:30.582Z,87.30
2023-01-22T07:14:37.111Z,87.29
2023-01-22T07:19:43.064Z,87.19
2023-01-22T07:24:48.539Z,87.22
2023-01-22T07:29:54.055Z,87.30
2023-01-22T07:34:59.529Z,87.25
2023-01-22T07:40:06.950Z,87.15
2023-01-22T07:45:13.233Z,87.18
2023-01-22T07:50:19.588Z,87.15
2023-01-22T07:55:25.482Z,87.22
2023-01-22T08:00:31.889Z,87.07
2023-01-22T08:05:39.158Z,87.08
2023-01-22T08:10:45.435Z,87.14
2023-01-22T08:15:50.956Z,86.94
2023-01-22T08:20:59.414Z,86.99
2023-01-22T08:26:06.107Z,87.00
2023-01-22T08:31:26.336Z,86.91
2023-01-22T08:36:33.618Z,86.82
2023-01-22T08:41:39.703Z,86.76
2023-01-22T08:46:45.210Z,86.83
2023-01-22T08:51:51.068Z,86.76
2023-01-22T08:56:56.782Z,86.63
2023-01-22T09:02:02.726Z,86.43
2023-01-22T09:07:10.066Z,86.49
2023-01-22T09:12:15.653Z,86.52
2023-01-22T09:17:21.198Z,86.58
2023-01-22T09:22:26.801Z,86.68
2023-01-22T09:27:32.333Z,86.63
2023-01-22T09:32:37.948Z,86.54
2023-01-22T09:37:43.565Z,86.53
2023-01-22T09:42:50.113Z,86.33
2023-01-22T09:48:01.286Z,86.21
2023-01-22T09:53:13.459Z,86.29
2023-01-22T09:58:23.128Z,86.04
2023-01-22T10:03:36.110Z,85.98
2023-01-22T10:09:03.899Z,85.93
2023-01-22T10:14:16.284Z,85.84
2023-01-22T10:19:27.653Z,85.75
2023-01-22T10:24:33.269Z,85.56
2023-01-22T10:29:39.100Z,85.58
2023-01-22T10:34:57.084Z,85.62
2023-01-22T10:40:02.592Z,85.56
2023-01-22T10:45:19.422Z,85.58
2023-01-22T10:50:25.003Z,85.47
2023-01-22T10:55:37.380Z,85.53
2023-01-22T11:00:51.777Z,85.51
2023-01-22T11:06:01.649Z,85.54
2023-01-22T11:11:12.959Z,85.51
2023-01-22T11:16:21.834Z,85.36
2023-01-22T11:21:32.450Z,85.45
2023-01-22T11:27:02.347Z,85.29
2023-01-22T11:32:38.050Z,85.32
2023-01-22T11:38:01.724Z,85.14
2023-01-22T11:43:25.809Z,85.17
2023-01-22T11:48:52.930Z,85.18
2023-01-22T11:54:18.906Z,85.03
2023-01-22T11:59:41.911Z,84.86
2023-01-22T12:05:13.201Z,84.81
2023-01-22T12:10:59.013Z,84.72
2023-01-22T12:16:16.663Z,84.65
2023-01-22T12:21:40.545Z,84.66
2023-01-22T12:27:02.960Z,84.39
2023-01-22T12:32:12.136Z,84.29
2023-01-22T12:37:22.280Z,84.10
2023-01-22T12:42:37.498Z,84.31
2023-01-22T12:47:57.860Z,84.31
2023-01-22T12:53:06.282Z,84.42
2023-01-22T12:58:24.346Z,84.36
2023-01-22T13:03:32.002Z,84.40
2023-01-22T13:08:42.543Z,84.41
2023-01-22T13:13:58.505Z,84.35
2023-01-22T13:19:21.899Z,84.19
2023-01-22T13:24:27.447Z,84.26
2023-01-22T13:29:36.786Z,84.25
2023-01-22T13:34:42.354Z,84.28
2023-01-22T13:39:47.954Z,84.21
2023-01-22T13:44:55.520Z,83.99
2023-01-22T13:50:01.769Z,84.17
2023-01-22T13:55:16.082Z,84.11
2023-01-22T14:00:30.311Z,83.86
2023-01-22T14:05:37.669Z,83.80
2023-01-22T14:10:43.793Z,83.17
2023-01-22T14:15:59.163Z,83.05
2023-01-22T14:21:06.139Z,83.06
2023-01-22T14:26:11.876Z,82.96
2023-01-22T14:31:17.488Z,83.29
2023-01-22T14:36:23.101Z,83.36
2023-01-22T14:41:28.688Z,82.36
2023-01-22T14:46:36.333Z,82.73
2023-01-22T14:51:42.056Z,82.89
2023-01-22T14:56:47.692Z,83.07
2023-01-22T15:01:53.462Z,83.23
2023-01-22T15:06:59.292Z,83.13
2023-01-22T15:12:05.785Z,83.15
2023-01-22T15:17:11.352Z,83.22
2023-01-22T15:22:17.359Z,83.19
2023-01-22T15:27:22.905Z,83.10
2023-01-22T15:32:28.682Z,83.11
2023-01-22T15:37:34.445Z,83.03
2023-01-22T15:42:39.945Z,82.90
2023-01-22T15:47:45.583Z,82.76
2023-01-22T15:52:56.989Z,82.79
2023-01-22T15:58:02.395Z,82.60
2023-01-22T16:03:08.177Z,82.57
2023-01-22T16:08:13.668Z,82.66
2023-01-22T16:13:19.322Z,82.69
2023-01-22T16:18:25.155Z,82.57
2023-01-22T16:23:32.480Z,81.93
2023-01-22T16:28:38.440Z,82.00
2023-01-22T16:33:46.785Z,81.84
2023-01-22T16:38:52.769Z,82.29
2023-01-22T16:44:01.272Z,82.43
2023-01-22T16:49:13.972Z,82.19
2023-01-22T16:54:23.948Z,81.88
2023-01-22T16:59:30.330Z,81.79
2023-01-22T17:04:35.919Z,81.64
2023-01-22T17:09:41.535Z,81.80
2023-01-22T17:14:52.145Z,81.85
2023-01-22T17:19:57.758Z,81.38
2023-01-22T17:25:03.584Z,81.19
2023-01-22T17:30:12.835Z,80.93
2023-01-22T17:35:18.967Z,80.79
2023-01-22T17:40:26.041Z,80.49
2023-01-22T17:45:31.552Z,80.64
2023-01-22T17:50:37.265Z,80.43
2023-01-22T17:55:42.886Z,80.31
2023-01-22T18:00:48.348Z,80.50
2023-01-22T18:05:54.623Z,80.24
2023-01-22T18:11:06.753Z,80.27
2023-01-22T18:16:15.852Z,80.48
2023-01-22T18:21:22.752Z,80.41
2023-01-22T18:26:28.962Z,80.68
2023-01-22T18:31:34.760Z,80.68
2023-01-22T18:36:42.145Z,80.65
2023-01-22T18:41:48.383Z,80.62
2023-01-22T18:46:56.849Z,80.60
2023-01-22T18:52:02.420Z,80.57
2023-01-22T18:57:08.022Z,80.65
2023-01-22T19:02:16.987Z,80.74
2023-01-22T19:07:22.630Z,80.75
2023-01-22T19:12:28.223Z,80.80
2023-01-22T19:17:33.881Z,80.94
2023-01-22T19:22:39.437Z,80.82
2023-01-22T19:27:45.009Z,80.80
2023-01-22T19:32:53.830Z,80.75
2023-01-22T19:37:59.648Z,80.96
2023-01-22T19:43:06.159Z,81.03
2023-01-22T19:48:11.701Z,81.07
2023-01-22T19:53:17.223Z,81.15
2023-01-22T19:58:22.895Z,81.21
2023-01-22T20:03:28.499Z,81.29
2023-01-22T20:08:35.919Z,81.29
2023-01-22T20:13:42.794Z,81.25
2023-01-22T20:18:49.464Z,81.33
2023-01-22T20:23:55.648Z,81.26
2023-01-22T20:29:02.224Z,81.32
2023-01-22T20:34:07.873Z,81.42
2023-01-22T20:39:13.878Z,81.46
2023-01-22T20:44:19.402Z,81.46
2023-01-22T20:49:25.030Z,81.53
2023-01-22T20:54:31.739Z,81.57
2023-01-22T20:59:37.310Z,81.51
2023-01-22T21:04:42.919Z,81.55
2023-01-22T21:09:49.431Z,81.46
2023-01-22T21:14:56.752Z,81.51
2023-01-22T21:20:02.358Z,81.39
2023-01-22T21:25:10.063Z,81.43
2023-01-22T21:30:17.315Z,81.50
2023-01-22T21:35:23.216Z,81.53
2023-01-22T21:40:29.987Z,81.56
2023-01-22T21:45:56.244Z,81.43
2023-01-22T21:51:03.344Z,81.51
2023-01-22T21:56:10.068Z,81.57
2023-01-22T22:01:19.560Z,81.61
2023-01-22T22:06:27.090Z,81.68
2023-01-22T22:11:33.155Z,81.68
2023-01-22T22:16:39.000Z,81.61
2023-01-22T22:21:44.940Z,81.58
2023-01-22T22:26:50.573Z,81.49
2023-01-22T22:31:56.040Z,81.49
2023-01-22T22:37:01.560Z,81.51
2023-01-22T22:42:07.591Z,81.50
2023-01-22T22:47:13.150Z,81.50
2023-01-22T22:52:18.738Z,81.46
2023-01-22T22:57:24.198Z,81.57
2023-01-22T23:02:29.695Z,81.64
2023-01-22T23:07:35.374Z,81.69
2023-01-22T23:12:41.022Z,81.78
2023-01-22T23:17:46.589Z,81.69
2023-01-22T23:22:55.142Z,81.62
2023-01-22T23:28:00.676Z,81.53
2023-01-22T23:33:06.606Z,81.45
2023-01-22T23:38:12.267Z,81.42
2023-01-22T23:43:17.779Z,81.43
2023-01-22T23:48:23.810Z,81.52
2023-01-22T23:53:29.981Z,81.65
2023-01-22T23:58:36.886Z,81.76
